Time;durP1;ratioP1;P1;durP2;ratioP2;P2;SDS_P1;SDS_P2;PMS_P1;PMS_P2;Temp;Humidity;BMP_temperature;BMP_pressure;BME280_temperature;BME280_humidity;BME280_pressure;Samples;Min_cycle;Max_cycle;Signal;HPM_P1;HPM_P2
2022/10/15 00:00:08;;;;;;;;;22.75;21.75;;;;;16.79;58.94;98383.47;4955435;28;103948;-44
2022/10/15 00:02:35;;;;;;;;;26.25;24.25;;;;;16.78;58.93;98383.69;4953865;28;102276;-43
2022/10/15 00:05:03;;;;;;;;;23.50;21.00;;;;;16.76;59.25;98375.75;4953893;28;102205;-43
2022/10/15 00:07:30;;;;;;;;;25.75;22.00;;;;;16.77;58.88;98391.06;4936411;28;102241;-44
2022/10/15 00:09:57;;;;;;;;;27.00;24.25;;;;;16.77;59.43;98388.31;4952206;28;104054;-43
2022/10/15 00:12:24;;;;;;;;;26.00;24.25;;;;;16.77;59.01;98388.31;4952536;28;102290;-43
2022/10/15 00:14:51;;;;;;;;;27.00;23.25;;;;;16.77;58.40;98391.06;4954621;28;102398;-43
2022/10/15 00:17:18;;;;;;;;;21.25;19.25;;;;;16.77;58.47;98382.88;4954050;28;102188;-43
2022/10/15 00:19:45;;;;;;;;;22.75;22.00;;;;;16.78;58.23;98390.00;4955798;28;104070;-45
2022/10/15 00:22:12;;;;;;;;;16.25;12.00;;;;;16.79;58.21;98379.91;4954676;28;102352;-43
2022/10/15 00:24:39;;;;;;;;;21.00;18.25;;;;;16.79;58.18;98385.38;4950258;28;102063;-43
2022/10/15 00:27:06;;;;;;;;;23.50;21.00;;;;;16.78;58.87;98376.34;4948991;28;102446;-43
2022/10/15 00:29:33;;;;;;;;;24.50;23.25;;;;;16.79;58.60;98379.91;4954809;28;104282;-43
2022/10/15 00:32:00;;;;;;;;;22.75;21.25;;;;;16.78;58.60;98381.81;4954510;28;102422;-43
2022/10/15 00:34:27;;;;;;;;;24.50;21.00;;;;;16.77;58.14;98377.41;4953490;28;102358;-43
2022/10/15 00:36:54;;;;;;;;;26.00;23.50;;;;;16.77;59.09;98377.41;4963658;28;102325;-43
2022/10/15 00:39:21;;;;;;;;;25.75;24.25;;;;;16.76;58.59;98364.81;4952264;28;104124;-43
2022/10/15 00:41:48;;;;;;;;;24.00;21.00;;;;;16.76;58.62;98370.28;4958159;28;102242;-43
2022/10/15 00:44:21;;;;;;;;;24.75;21.00;;;;;16.75;58.79;98371.34;4953240;28;102458;-43
2022/10/15 00:46:52;;;;;;;;;25.00;21.00;;;;;16.76;58.41;98366.72;4950963;28;102173;-43
2022/10/15 00:49:34;;;;;;;;;22.50;21.25;;;;;16.75;59.24;98373.28;4951084;28;104064;-43
2022/10/15 00:52:37;;;;;;;;;25.00;21.00;;;;;16.75;58.31;98363.16;4948746;28;102480;-43
2022/10/15 00:55:37;;;;;;;;;25.00;22.75;;;;;16.73;58.96;98359.03;4928437;28;102525;-43
2022/10/15 00:58:09;;;;;;;;;24.00;23.00;;;;;16.72;59.24;98366.38;4904931;28;103139;-43
2022/10/15 01:00:36;;;;;;;;;24.50;21.50;;;;;16.72;58.96;98363.66;4950895;28;104023;-43
2022/10/15 01:03:03;;;;;;;;;24.50;22.25;;;;;16.71;58.82;98351.06;4949166;28;102249;-43
2022/10/15 01:05:30;;;;;;;;;23.75;22.50;;;;;16.72;58.74;98358.19;4949491;28;102499;-43
2022/10/15 01:08:07;;;;;;;;;24.00;22.50;;;;;16.73;58.60;98357.13;4951035;28;104831;-43
2022/10/15 01:11:08;;;;;;;;;26.00;21.75;;;;;16.73;57.98;98343.47;4951561;28;109778;-43
2022/10/15 01:14:19;;;;;;;;;22.00;20.25;;;;;16.73;58.84;98343.47;4941412;28;102500;-43
2022/10/15 01:17:08;;;;;;;;;19.00;19.00;;;;;16.74;59.21;98338.84;4942082;28;102168;-43
2022/10/15 01:20:05;;;;;;;;;27.50;24.25;;;;;16.72;58.48;98336.34;4950008;28;102640;-43
2022/10/15 01:23:22;;;;;;;;;24.75;24.00;;;;;16.72;58.67;98336.34;4949351;28;108236;-43
2022/10/15 01:26:29;;;;;;;;;25.25;23.00;;;;;16.72;58.42;98324.59;4938960;28;102043;-43
2022/10/15 01:29:15;;;;;;;;;23.25;20.25;;;;;16.72;59.13;98330.06;4947867;28;102375;-43
2022/10/15 01:31:47;;;;;;;;;25.75;21.75;;;;;16.71;58.67;98328.41;4955487;28;102254;-43
2022/10/15 01:34:18;;;;;;;;;26.25;23.50;;;;;16.71;58.39;98329.22;4953530;28;108862;-43
2022/10/15 01:36:51;;;;;;;;;30.75;26.25;;;;;16.69;58.56;98331.41;4962786;28;102309;-43
2022/10/15 01:39:31;;;;;;;;;25.50;22.00;;;;;16.69;58.43;98336.03;4951971;28;102377;-43
2022/10/15 01:42:07;;;;;;;;;24.25;23.50;;;;;16.67;58.60;98328.06;4941108;28;102589;-43
2022/10/15 01:44:46;;;;;;;;;26.00;25.00;;;;;16.67;58.37;98324.50;4951509;28;104167;-43
2022/10/15 01:47:37;;;;;;;;;25.00;21.50;;;;;16.67;58.74;98322.63;4936584;28;102371;-44
2022/10/15 01:50:04;;;;;;;;;25.00;24.50;;;;;16.66;58.24;98320.94;4952939;28;102527;-43
2022/10/15 01:52:33;;;;;;;;;25.75;23.25;;;;;16.66;58.79;98322.88;4953672;28;102222;-43
2022/10/15 01:55:00;;;;;;;;;27.25;23.00;;;;;16.67;58.08;98316.31;4932790;28;103993;-43
2022/10/15 01:57:27;;;;;;;;;32.25;27.25;;;;;16.66;59.01;98317.41;4936642;28;102320;-43
2022/10/15 01:59:54;;;;;;;;;13.50;11.75;;;;;16.67;58.67;98310.88;4956152;28;102541;-43
2022/10/15 02:02:21;;;;;;;;;27.00;24.25;;;;;16.67;59.09;98311.69;4955070;28;102585;-43
2022/10/15 02:04:49;;;;;;;;;25.25;22.25;;;;;16.68;58.78;98307.06;4953409;28;104262;-43
2022/10/15 02:07:57;;;;;;;;;25.50;21.25;;;;;16.67;58.77;98310.88;4958342;28;102543;-43
2022/10/15 02:10:36;;;;;;;;;23.50;22.00;;;;;16.66;58.73;98306.50;4951844;28;102526;-44
2022/10/15 02:13:33;;;;;;;;;25.50;22.75;;;;;16.66;58.73;98309.22;4954701;28;103128;-43
2022/10/15 02:16:23;;;;;;;;;26.00;23.75;;;;;16.65;58.58;98308.41;4941901;28;109083;-43
2022/10/15 02:19:11;;;;;;;;;25.25;22.00;;;;;16.65;58.60;98305.66;4935396;28;102442;-43
2022/10/15 02:21:50;;;;;;;;;23.75;21.50;;;;;16.65;58.36;98297.47;4951771;28;102507;-43
2022/10/15 02:24:19;;;;;;;;;27.75;23.25;;;;;16.63;58.94;98294.16;4955222;28;102825;-43
2022/10/15 02:26:46;;;;;;;;;24.00;22.25;;;;;16.62;58.26;98297.94;4951138;28;108833;-43
2022/10/15 02:29:15;;;;;;;;;27.00;22.50;;;;;16.63;58.97;98290.59;4953261;28;102292;-44
2022/10/15 02:31:47;;;;;;;;;25.00;21.25;;;;;16.62;58.93;98292.50;4938126;28;102892;-43
2022/10/15 02:34:17;;;;;;;;;24.25;22.50;;;;;16.60;58.30;98289.19;4955357;28;102467;-44
2022/10/15 02:36:45;;;;;;;;;22.50;19.50;;;;;16.62;58.77;98291.66;4961618;28;108749;-43
2022/10/15 02:39:14;;;;;;;;;23.75;21.25;;;;;16.61;59.00;98285.41;4955779;28;102583;-43
2022/10/15 02:41:41;;;;;;;;;22.25;20.00;;;;;16.63;58.56;98276.94;4953150;28;103886;-44
2022/10/15 02:44:09;;;;;;;;;25.25;21.00;;;;;16.62;58.86;98287.03;4944473;28;102612;-43
2022/10/15 02:46:36;;;;;;;;;25.75;24.75;;;;;16.62;58.49;98287.03;4954510;28;104309;-43
2022/10/15 02:49:03;;;;;;;;;22.00;21.75;;;;;16.63;57.85;98283.22;4952916;28;102591;-43
2022/10/15 02:51:33;;;;;;;;;24.75;24.25;;;;;16.63;58.69;98280.50;4952706;28;102157;-43
2022/10/15 02:54:01;;;;;;;;;25.50;22.00;;;;;16.65;58.96;98283.00;4955620;28;102744;-43
2022/10/15 02:56:28;;;;;;;;;19.75;16.50;;;;;16.63;59.01;98269.59;4950758;28;104238;-43
2022/10/15 02:59:00;;;;;;;;;22.50;19.25;;;;;16.64;58.75;98264.97;4952112;28;102397;-43
2022/10/15 03:01:27;;;;;;;;;25.75;23.75;;;;;16.64;58.19;98273.16;4954114;28;102144;-43
2022/10/15 03:03:54;;;;;;;;;13.50;12.25;;;;;16.63;58.94;98264.13;4956366;28;102173;-43
2022/10/15 03:06:21;;;;;;;;;24.50;20.50;;;;;16.64;58.54;98262.22;4953070;28;104566;-43
2022/10/15 03:08:48;;;;;;;;;23.00;20.75;;;;;16.64;58.22;98262.22;4953182;28;105342;-42
2022/10/15 03:11:15;;;;;;;;;25.00;24.25;;;;;16.63;57.97;98264.13;4957002;28;102485;-43
2022/10/15 03:13:42;;;;;;;;;22.75;21.00;;;;;16.63;58.53;98263.28;4952282;28;102615;-43
2022/10/15 03:16:10;;;;;;;;;20.75;19.50;;;;;16.62;58.44;98264.38;4952049;28;104050;-43
2022/10/15 03:18:37;;;;;;;;;24.00;20.75;;;;;16.61;58.64;98258.09;4951997;28;102087;-43
2022/10/15 03:21:06;;;;;;;;;20.00;17.25;;;;;16.60;58.32;98267.38;4952840;28;102550;-43
2022/10/15 03:23:33;;;;;;;;;23.75;20.00;;;;;16.59;58.87;98249.31;4953505;28;102480;-43
2022/10/15 03:26:00;;;;;;;;;23.25;22.25;;;;;16.59;58.02;98249.31;4952156;28;104067;-43
2022/10/15 03:28:27;;;;;;;;;24.50;21.00;;;;;16.59;58.25;98249.31;4952304;28;101867;-43
2022/10/15 03:30:54;;;;;;;;;22.00;20.75;;;;;16.60;58.57;98239.22;4952289;28;102260;-43
2022/10/15 03:33:21;;;;;;;;;23.25;18.25;;;;;16.60;57.95;98242.78;4953906;28;103268;-43
2022/10/15 03:35:51;;;;;;;;;20.75;19.00;;;;;16.59;58.17;98243.03;4964142;28;104154;-43
2022/10/15 03:38:18;;;;;;;;;27.00;23.75;;;;;16.60;58.21;98250.16;4928411;28;105389;-43
2022/10/15 03:40:45;;;;;;;;;26.00;22.50;;;;;16.60;57.71;98233.78;4937395;28;102494;-43
2022/10/15 03:43:12;;;;;;;;;19.75;19.25;;;;;16.60;58.65;98229.16;4955352;28;103337;-43
2022/10/15 03:45:39;;;;;;;;;23.00;22.00;;;;;16.60;58.78;98234.59;4951756;28;103747;-43
2022/10/15 03:48:06;;;;;;;;;23.25;21.25;;;;;16.61;58.61;98241.72;4952239;28;102131;-43
2022/10/15 03:50:33;;;;;;;;;21.25;18.25;;;;;16.59;58.80;98241.13;4954507;28;104228;-43
2022/10/15 03:53:04;;;;;;;;;23.00;21.75;;;;;16.60;57.80;98242.78;4954010;28;102665;-44
2022/10/15 03:55:31;;;;;;;;;20.50;19.00;;;;;16.60;58.56;98237.34;4953583;28;103998;-43
2022/10/15 03:57:58;;;;;;;;;25.50;24.75;;;;;16.60;58.50;98231.03;4954082;28;105803;-43
2022/10/15 04:00:25;;;;;;;;;24.00;22.25;;;;;16.60;58.15;98231.03;4953558;28;102455;-43
2022/10/15 04:02:52;;;;;;;;;19.50;19.50;;;;;16.58;58.33;98220.38;4955848;28;102640;-43
2022/10/15 04:05:19;;;;;;;;;24.75;21.00;;;;;16.58;58.44;98214.91;4954720;28;104050;-43
2022/10/15 04:07:46;;;;;;;;;25.50;20.50;;;;;16.58;58.25;98220.38;4956572;28;102329;-43
2022/10/15 04:10:13;;;;;;;;;25.50;17.25;;;;;16.57;58.94;98224.13;4951797;28;102585;-43
2022/10/15 04:12:40;;;;;;;;;25.00;23.00;;;;;16.57;58.59;98228.78;4951356;28;102552;-43
2022/10/15 04:15:08;;;;;;;;;22.00;19.25;;;;;16.55;58.96;98231.75;4921962;28;104257;-44
2022/10/15 04:17:35;;;;;;;;;22.25;20.25;;;;;16.56;58.86;98224.41;4953339;28;102240;-43
2022/10/15 04:20:02;;;;;;;;;25.00;19.75;;;;;16.54;58.73;98227.38;4952680;28;103061;-43
2022/10/15 04:22:29;;;;;;;;;24.00;20.75;;;;;16.55;58.38;98228.19;4952966;28;102219;-44
2022/10/15 04:24:55;;;;;;;;;21.00;19.25;;;;;16.54;58.71;98230.09;4951931;28;104033;-51
2022/10/15 04:27:22;;;;;;;;;18.50;17.25;;;;;16.56;57.63;98221.66;4954314;28;102475;-44
2022/10/15 04:29:49;;;;;;;;;20.75;19.25;;;;;16.55;57.71;98218.09;4951500;28;101977;-44
2022/10/15 04:32:16;;;;;;;;;19.00;18.00;;;;;16.56;58.74;98224.41;4955907;28;102276;-44
2022/10/15 04:34:45;;;;;;;;;19.25;18.00;;;;;16.55;58.48;98218.09;4955341;28;103325;-44
2022/10/15 04:37:12;;;;;;;;;20.25;17.50;;;;;16.54;57.97;98216.44;4958791;28;102313;-44
2022/10/15 04:39:39;;;;;;;;;21.00;21.00;;;;;16.55;58.44;98217.28;4942562;28;102186;-43
2022/10/15 04:42:06;;;;;;;;;22.00;20.00;;;;;16.54;58.84;98219.19;4961299;28;102442;-45
2022/10/15 04:44:33;;;;;;;;;18.50;17.25;;;;;16.53;58.44;98212.06;4953061;28;104184;-44
2022/10/15 04:47:00;;;;;;;;;20.25;18.25;;;;;16.52;58.77;98205.78;4953793;28;102362;-44
2022/10/15 04:49:27;;;;;;;;;21.50;20.75;;;;;16.53;57.94;98206.59;4960307;28;103537;-44
2022/10/15 04:51:54;;;;;;;;;28.25;21.25;;;;;16.52;57.94;98204.97;4948151;28;102354;-44
2022/10/15 04:54:21;;;;;;;;;20.25;19.50;;;;;16.52;58.15;98204.97;4945583;28;104094;-43
2022/10/15 04:56:48;;;;;;;;;22.50;19.25;;;;;16.49;58.32;98205.44;4956187;28;102356;-44
2022/10/15 04:59:15;;;;;;;;;22.75;21.75;;;;;16.51;58.59;98208.78;4953445;28;102502;-44
2022/10/15 05:01:42;;;;;;;;;22.25;20.25;;;;;16.50;58.30;98207.09;4953564;28;102247;-44
2022/10/15 05:04:11;;;;;;;;;22.00;20.00;;;;;16.48;58.54;98203.78;4953385;28;104070;-44
2022/10/15 05:06:38;;;;;;;;;19.25;16.75;;;;;16.49;58.49;98200.81;4955112;28;102126;-44
2022/10/15 05:09:05;;;;;;;;;21.75;19.25;;;;;16.49;58.54;98208.19;4956587;28;103254;-44
2022/10/15 05:11:34;;;;;;;;;18.75;17.25;;;;;16.50;57.91;98207.09;4956841;28;102611;-44
2022/10/15 05:14:01;;;;;;;;;21.25;19.00;;;;;16.48;58.69;98212.81;4946123;28;104256;-44
2022/10/15 05:16:28;;;;;;;;;20.00;16.50;;;;;16.49;58.40;98209.00;4954593;28;102430;-44
2022/10/15 05:19:06;;;;;;;;;19.50;19.50;;;;;16.49;58.00;98205.44;4957047;28;102220;-43
2022/10/15 05:21:33;;;;;;;;;15.50;15.25;;;;;16.49;57.45;98202.72;4946900;28;102508;-43
2022/10/15 05:24:00;;;;;;;;;20.25;18.50;;;;;16.49;58.15;98219.09;4948769;28;104197;-44
2022/10/15 05:26:28;;;;;;;;;22.50;19.50;;;;;16.49;58.82;98213.63;4951305;28;102081;-44
2022/10/15 05:28:56;;;;;;;;;20.50;17.25;;;;;16.48;57.85;98226.44;4949611;28;102324;-44
2022/10/15 05:31:26;;;;;;;;;19.25;19.25;;;;;16.49;58.16;98216.38;4949892;28;102351;-44
2022/10/15 05:33:53;;;;;;;;;18.50;18.25;;;;;16.48;58.40;98215.53;4955123;28;104030;-43
2022/10/15 05:36:22;;;;;;;;;23.25;19.25;;;;;16.48;58.35;98217.44;4938780;28;102362;-43
2022/10/15 05:38:53;;;;;;;;;21.25;17.75;;;;;16.47;58.77;98207.63;4957252;28;102245;-43
2022/10/15 05:41:20;;;;;;;;;22.75;19.75;;;;;16.46;58.54;98197.75;4944418;28;102216;-44
2022/10/15 05:43:48;;;;;;;;;19.25;17.00;;;;;16.46;58.01;98200.50;4961361;28;104188;-44
2022/10/15 05:46:15;;;;;;;;;19.25;17.50;;;;;16.47;58.38;98202.16;4949582;28;102357;-44
2022/10/15 05:48:42;;;;;;;;;17.50;16.25;;;;;16.46;58.91;98200.50;4956419;28;102062;-44
2022/10/15 05:51:10;;;;;;;;;21.00;19.00;;;;;16.45;57.80;98204.28;4957548;28;102314;-43
2022/10/15 05:53:38;;;;;;;;;20.00;17.25;;;;;16.45;57.79;98212.47;4954694;28;104083;-44
2022/10/15 05:56:07;;;;;;;;;20.00;18.25;;;;;16.44;57.78;98208.91;4954854;28;102285;-43
2022/10/15 05:58:34;;;;;;;;;18.75;17.25;;;;;16.46;58.68;98217.69;4955719;28;102290;-43
2022/10/15 06:01:05;;;;;;;;;19.00;16.50;;;;;16.45;58.51;98216.03;4955477;28;102485;-43
2022/10/15 06:03:32;;;;;;;;;19.50;17.75;;;;;16.49;58.07;98216.38;4953944;28;103782;-43
2022/10/15 06:05:59;;;;;;;;;18.75;16.25;;;;;16.48;58.27;98220.16;4953082;28;110724;-43
2022/10/15 06:08:27;;;;;;;;;15.25;15.00;;;;;16.49;58.50;98222.66;4955951;28;102406;-43
2022/10/15 06:10:55;;;;;;;;;21.75;18.00;;;;;16.50;58.22;98228.94;4956341;28;102186;-43
2022/10/15 06:13:22;;;;;;;;;20.75;17.25;;;;;16.51;58.15;98225.16;4945690;28;104214;-43
2022/10/15 06:15:49;;;;;;;;;20.75;19.50;;;;;16.51;58.60;98228.69;4956675;28;104313;-44
2022/10/15 06:18:16;;;;;;;;;18.50;18.00;;;;;16.52;58.00;98227.59;4957310;28;102390;-44
2022/10/15 06:20:43;;;;;;;;;18.75;18.00;;;;;16.53;58.38;98223.81;4950364;28;102396;-44
2022/10/15 06:23:10;;;;;;;;;22.00;18.50;;;;;16.53;57.52;98229.25;4952230;28;104104;-43
2022/10/15 06:25:38;;;;;;;;;23.25;19.25;;;;;16.54;58.27;98230.09;4956038;28;102335;-43
2022/10/15 06:28:05;;;;;;;;;14.25;14.25;;;;;16.55;58.48;98230.94;4954214;28;102798;-43
2022/10/15 06:30:32;;;;;;;;;20.00;16.25;;;;;16.56;58.00;98217.03;4953011;28;103547;-43
2022/10/15 06:32:59;;;;;;;;;22.75;20.75;;;;;16.57;58.08;98221.41;4952667;28;104051;-43
2022/10/15 06:35:29;;;;;;;;;21.50;16.25;;;;;16.58;57.53;98222.25;4949681;28;102116;-43
2022/10/15 06:37:58;;;;;;;;;19.50;17.75;;;;;16.59;58.19;98227.50;4965632;28;102535;-43
2022/10/15 06:40:29;;;;;;;;;14.00;13.25;;;;;16.58;57.26;98220.38;4954241;28;102559;-43
2022/10/15 06:43:09;;;;;;;;;17.75;15.50;;;;;16.59;58.13;98224.75;4965971;28;103580;-44
2022/10/15 06:45:37;;;;;;;;;19.25;16.25;;;;;16.58;57.88;98225.81;4949200;28;102201;-44
2022/10/15 06:48:05;;;;;;;;;16.75;16.00;;;;;16.60;57.51;98229.16;4952473;28;111000;-43
2022/10/15 06:50:33;;;;;;;;;18.00;17.25;;;;;16.60;58.15;98220.13;4951520;28;102593;-43
2022/10/15 06:53:00;;;;;;;;;19.50;18.00;;;;;16.62;57.98;98229.72;4934322;28;104279;-43
2022/10/15 06:55:27;;;;;;;;;19.75;16.25;;;;;16.63;57.36;98236.00;4952211;28;102397;-43
2022/10/15 06:57:55;;;;;;;;;14.00;14.00;;;;;16.63;57.33;98239.56;4951845;28;110634;-43
2022/10/15 07:00:22;;;;;;;;;18.75;16.25;;;;;16.63;57.61;98234.09;4953772;28;102957;-43
2022/10/15 07:02:50;;;;;;;;;18.25;15.25;;;;;16.64;57.72;98224.84;4948427;28;104193;-43
2022/10/15 07:05:17;;;;;;;;;14.00;13.75;;;;;16.64;57.32;98235.75;4957510;28;102312;-43
2022/10/15 07:07:52;;;;;;;;;15.75;15.00;;;;;16.65;57.60;98231.97;4954989;28;103688;-43
2022/10/15 07:10:19;;;;;;;;;15.75;15.00;;;;;16.65;57.34;98234.69;4957152;28;102565;-43
2022/10/15 07:12:51;;;;;;;;;21.00;19.00;;;;;16.66;57.33;98235.53;4951093;28;108447;-43
2022/10/15 07:15:18;;;;;;;;;15.50;13.50;;;;;16.65;57.76;98242.88;4957733;28;102018;-43
2022/10/15 07:17:49;;;;;;;;;20.25;16.50;;;;;16.66;57.13;98249.16;4953796;28;104491;-43
2022/10/15 07:20:16;;;;;;;;;19.75;17.75;;;;;16.67;57.18;98250.81;4951799;28;102241;-43
2022/10/15 07:22:50;;;;;;;;;16.75;16.25;;;;;16.65;57.47;98242.03;4953456;28;108719;-43
2022/10/15 07:25:17;;;;;;;;;14.00;13.50;;;;;16.67;57.85;98250.81;4955606;28;102094;-43
2022/10/15 07:27:44;;;;;;;;;19.50;17.25;;;;;16.67;57.02;98257.09;4954342;28;105903;-43
2022/10/15 07:30:11;;;;;;;;;20.00;15.25;;;;;16.67;57.76;98257.09;4956329;28;102240;-44
2022/10/15 07:32:39;;;;;;;;;11.75;11.00;;;;;16.66;57.48;98249.97;4953128;28;103993;-43
2022/10/15 07:35:06;;;;;;;;;16.25;15.75;;;;;16.69;57.30;98254.13;4945693;28;102336;-43
2022/10/15 07:37:33;;;;;;;;;17.25;16.25;;;;;16.70;57.23;98261.25;4964159;28;102412;-43
2022/10/15 07:40:00;;;;;;;;;16.50;14.50;;;;;16.71;57.05;98258.25;4953426;28;102513;-43
2022/10/15 07:42:27;;;;;;;;;15.50;15.25;;;;;16.71;57.54;98260.97;4964517;28;104250;-43
2022/10/15 07:44:54;;;;;;;;;19.00;17.00;;;;;16.72;57.68;98257.19;4958176;28;102425;-43
2022/10/15 07:47:21;;;;;;;;;20.00;17.00;;;;;16.72;56.97;98256.34;4954408;28;102276;-43
2022/10/15 07:49:48;;;;;;;;;16.75;15.25;;;;;16.73;57.59;98247.09;4954006;28;102123;-44
2022/10/15 07:52:15;;;;;;;;;16.25;16.00;;;;;16.73;57.89;98247.91;4954609;28;108723;-43
2022/10/15 07:54:42;;;;;;;;;16.25;14.25;;;;;16.74;57.71;98252.31;4953245;28;102214;-43
2022/10/15 07:57:09;;;;;;;;;17.75;16.00;;;;;16.76;57.75;98249.31;4954453;28;102460;-43
2022/10/15 07:59:36;;;;;;;;;17.00;15.75;;;;;16.76;56.95;98249.31;4955322;28;102082;-43
2022/10/15 08:02:03;;;;;;;;;14.00;13.50;;;;;16.77;57.71;98249.06;4954921;28;104149;-43
2022/10/15 08:04:30;;;;;;;;;16.00;14.75;;;;;16.77;57.33;98257.25;4948160;28;102248;-43
2022/10/15 08:06:57;;;;;;;;;18.25;15.50;;;;;16.79;57.34;98254.28;4954797;28;102125;-43
2022/10/15 08:09:24;;;;;;;;;15.50;15.50;;;;;16.80;57.20;98267.69;4955383;28;102508;-43
2022/10/15 08:11:51;;;;;;;;;16.25;13.75;;;;;16.79;56.87;98259.75;4954358;28;104029;-44
2022/10/15 08:14:18;;;;;;;;;14.00;13.00;;;;;16.81;57.44;98271.25;4956849;28;102070;-44
2022/10/15 08:16:45;;;;;;;;;17.75;16.75;;;;;16.80;57.68;98278.59;4955481;28;102435;-43
2022/10/15 08:19:16;;;;;;;;;15.00;14.50;;;;;16.81;57.42;98277.53;4954451;28;102536;-43
2022/10/15 08:21:44;;;;;;;;;16.75;16.25;;;;;16.80;57.05;98273.13;4952951;28;104210;-43
2022/10/15 08:24:13;;;;;;;;;16.00;15.00;;;;;16.81;57.81;98265.78;4948776;28;102332;-43
2022/10/15 08:26:40;;;;;;;;;17.50;15.50;;;;;16.81;57.43;98263.88;4951489;28;102325;-43
2022/10/15 08:29:08;;;;;;;;;17.25;15.50;;;;;16.81;57.31;98266.59;4946805;28;102583;-43
2022/10/15 08:31:35;;;;;;;;;15.50;13.75;;;;;16.77;57.01;98254.53;4949118;28;104197;-44
2022/10/15 08:34:02;;;;;;;;;17.00;15.50;;;;;16.83;57.46;98271.84;4950937;28;103167;-44
2022/10/15 08:36:29;;;;;;;;;15.75;14.00;;;;;16.83;57.36;98266.38;4963174;28;102203;-44
2022/10/15 08:38:57;;;;;;;;;15.00;12.75;;;;;16.83;57.01;98260.91;4955596;28;102358;-43
2022/10/15 08:41:37;;;;;;;;;15.50;14.00;;;;;16.83;56.29;98256.28;4951552;28;104086;-43
2022/10/15 08:44:05;;;;;;;;;12.00;11.50;;;;;16.85;57.77;98275.13;4958330;28;102415;-43
2022/10/15 08:46:57;;;;;;;;;16.50;15.00;;;;;16.84;56.91;98271.56;4954711;28;102421;-43
2022/10/15 08:49:49;;;;;;;;;13.00;12.50;;;;;16.85;56.90;98273.22;4953433;28;102923;-43
2022/10/15 08:52:20;;;;;;;;;17.00;15.50;;;;;16.87;56.83;98264.78;4944918;28;105586;-43
2022/10/15 08:54:47;;;;;;;;;17.50;13.25;;;;;16.87;57.25;98271.09;4938975;28;102478;-43
2022/10/15 08:57:50;;;;;;;;;14.75;14.25;;;;;16.86;57.14;98266.69;4956971;28;102320;-43
2022/10/15 09:00:18;;;;;;;;;14.50;13.75;;;;;16.87;56.29;98268.34;4954984;28;102594;-43
2022/10/15 09:02:54;;;;;;;;;14.00;13.00;;;;;16.88;57.49;98272.75;4957118;28;109142;-43
2022/10/15 09:05:54;;;;;;;;;15.50;13.25;;;;;16.88;57.17;98270.00;4952869;28;102612;-43
2022/10/15 09:08:35;;;;;;;;;16.25;15.25;;;;;16.89;56.74;98276.28;4952907;28;102441;-43
2022/10/15 09:11:23;;;;;;;;;16.75;15.50;;;;;16.88;57.15;98280.94;4947072;28;102479;-43
2022/10/15 09:13:50;;;;;;;;;16.75;15.00;;;;;16.88;57.35;98288.31;4955251;28;108990;-43
2022/10/15 09:16:20;;;;;;;;;15.00;14.25;;;;;16.88;57.12;98286.41;4954385;28;102472;-43
2022/10/15 09:18:50;;;;;;;;;14.00;14.00;;;;;16.88;56.87;98280.94;4956861;28;102577;-43
2022/10/15 09:21:18;;;;;;;;;19.25;15.75;;;;;16.89;57.12;98271.66;4956632;28;102539;-43
2022/10/15 09:23:45;;;;;;;;;16.25;13.75;;;;;16.90;57.20;98286.13;4953023;28;104449;-43
2022/10/15 09:26:12;;;;;;;;;14.75;13.00;;;;;16.89;57.20;98282.56;4955749;28;102591;-43
2022/10/15 09:29:13;;;;;;;;;15.50;14.25;;;;;16.91;56.93;98282.31;4957291;28;102485;-43
2022/10/15 09:32:17;;;;;;;;;15.00;12.50;;;;;16.90;57.14;98284.22;4926738;28;102448;-43
2022/10/15 09:35:01;;;;;;;;;14.00;13.25;;;;;16.91;57.52;98285.88;4931469;28;108688;-43
2022/10/15 09:37:39;;;;;;;;;15.00;13.75;;;;;16.93;57.20;98282.91;4958815;28;102178;-43
2022/10/15 09:40:23;;;;;;;;;13.25;13.00;;;;;16.93;57.19;98286.44;4944266;28;102319;-43
2022/10/15 09:42:49;;;;;;;;;14.50;13.75;;;;;16.93;56.50;98283.72;4958535;28;102431;-43
2022/10/15 09:45:17;;;;;;;;;16.50;14.75;;;;;16.93;56.92;98278.25;4950079;28;110685;-43
2022/10/15 09:47:44;;;;;;;;;16.50;14.75;;;;;16.94;56.81;98282.66;4955771;28;103233;-43
2022/10/15 09:50:12;;;;;;;;;15.25;14.25;;;;;16.94;57.34;98273.63;4955701;28;102513;-43
2022/10/15 09:52:58;;;;;;;;;14.50;12.75;;;;;16.95;57.41;98275.28;4957187;28;102422;-43
2022/10/15 09:55:39;;;;;;;;;13.50;13.25;;;;;16.96;56.93;98287.88;4953780;28;108873;-44
2022/10/15 09:58:23;;;;;;;;;14.00;13.75;;;;;16.95;56.48;98289.78;4947466;28;102331;-44
2022/10/15 10:00:55;;;;;;;;;16.50;15.00;;;;;16.97;57.24;98288.72;4950874;28;102279;-45
2022/10/15 10:03:24;;;;;;;;;17.00;13.75;;;;;16.97;57.66;98284.06;4949612;28;103431;-43
2022/10/15 10:06:10;;;;;;;;;15.75;13.25;;;;;16.96;57.62;98290.59;4954197;28;103554;-44
2022/10/15 10:08:39;;;;;;;;;13.00;12.50;;;;;16.98;56.53;98295.78;4955873;28;102429;-43
2022/10/15 10:11:09;;;;;;;;;14.75;14.25;;;;;16.97;57.39;98288.72;4953396;28;103337;-43
2022/10/15 10:13:53;;;;;;;;;14.00;13.00;;;;;16.97;56.99;98285.97;4953905;28;102555;-44
2022/10/15 10:16:20;;;;;;;;;16.50;14.00;;;;;16.98;56.85;98291.16;4963049;28;108741;-43
2022/10/15 10:19:09;;;;;;;;;14.25;13.25;;;;;16.99;57.25;98294.72;4939125;28;102408;-44
2022/10/15 10:21:38;;;;;;;;;16.00;13.75;;;;;16.99;56.73;98294.72;4944178;28;102235;-44
2022/10/15 10:24:29;;;;;;;;;13.50;13.25;;;;;17.00;56.26;98293.66;4956793;28;102262;-44
2022/10/15 10:27:02;;;;;;;;;13.00;12.00;;;;;16.99;56.94;98292.00;4953264;28;109700;-43
2022/10/15 10:29:36;;;;;;;;;15.50;13.75;;;;;17.00;57.22;98297.22;4955163;28;102595;-43
2022/10/15 10:32:22;;;;;;;;;14.50;13.50;;;;;17.00;56.69;98291.75;4952238;28;102169;-43
2022/10/15 10:34:49;;;;;;;;;9.75;9.75;;;;;17.00;57.55;98293.66;4963729;28;102129;-44
2022/10/15 10:37:18;;;;;;;;;11.75;10.50;;;;;16.99;56.53;98295.56;4957056;28;109152;-44
2022/10/15 10:39:50;;;;;;;;;12.25;12.00;;;;;17.00;56.13;98299.94;4955447;28;102701;-43
2022/10/15 10:42:18;;;;;;;;;16.75;14.75;;;;;17.00;56.71;98296.38;4955322;28;102642;-43
2022/10/15 10:44:45;;;;;;;;;14.75;13.00;;;;;17.01;57.17;98292.59;4954680;28;102459;-44
2022/10/15 10:47:16;;;;;;;;;14.75;12.75;;;;;17.00;56.57;98291.75;4954515;28;103953;-43
2022/10/15 10:49:53;;;;;;;;;16.75;15.25;;;;;17.00;56.48;98299.13;4953531;28;102584;-43
2022/10/15 10:52:25;;;;;;;;;13.00;12.50;;;;;17.01;56.96;98300.78;4946900;28;102488;-43
2022/10/15 10:55:04;;;;;;;;;13.75;13.00;;;;;17.00;57.00;98304.59;4949894;28;102508;-43
2022/10/15 10:57:54;;;;;;;;;12.00;11.25;;;;;17.01;57.51;98306.25;4952412;28;103797;-44
2022/10/15 11:00:29;;;;;;;;;13.50;13.00;;;;;17.02;57.10;98302.44;4927035;28;102494;-43
2022/10/15 11:02:56;;;;;;;;;14.75;14.00;;;;;17.01;56.57;98303.50;4952317;28;104422;-43
2022/10/15 11:05:28;;;;;;;;;16.75;13.50;;;;;17.02;56.23;98307.91;4955383;28;102704;-43
2022/10/15 11:08:07;;;;;;;;;12.75;12.75;;;;;17.02;56.54;98297.78;4934722;28;104087;-43
2022/10/15 11:10:42;;;;;;;;;14.00;13.00;;;;;17.03;57.20;98306.81;4953599;28;102184;-44
2022/10/15 11:13:28;;;;;;;;;15.25;13.50;;;;;17.03;57.06;98293.16;4953917;28;102228;-43
2022/10/15 11:16:00;;;;;;;;;13.00;12.00;;;;;17.03;56.78;98301.34;4952037;28;102375;-43
2022/10/15 11:18:42;;;;;;;;;13.75;12.25;;;;;17.03;56.97;98298.63;4951761;28;104067;-43
2022/10/15 11:21:27;;;;;;;;;13.25;12.00;;;;;17.03;56.54;98293.16;4948097;28;102105;-43
2022/10/15 11:24:09;;;;;;;;;13.00;12.25;;;;;17.04;56.95;98298.38;4951282;28;102144;-43
2022/10/15 11:26:51;;;;;;;;;13.75;12.00;;;;;17.04;56.14;98289.34;4952964;28;102555;-43
2022/10/15 11:29:41;;;;;;;;;12.25;11.00;;;;;17.03;56.53;98288.50;4951341;28;108730;-43